SHARE
TWEET

Errorreport

a guest Sep 18th, 2019 84 Never
Not a member of Pastebin yet? Sign Up, it unlocks many cool features!
  1. AT+CSTT="internet","",""
  2.  
  3.  
  4. OK
  5.  
  6. AT+CSTT="internet","",""
  7.  
  8.  
  9. ERROR
  10.  
  11.  
  12.  
  13. Call Ready
  14.  
  15.  
  16.  
  17. SMS Ready
  18.  
  19.  
  20.  
  21. NORMAL POWER DOWN
  22.  
  23. AT+CSTT="internet","",""
  24.  
  25.  
  26. OK
  27.  
  28. AT+CSTT="internet","",""
  29.  
  30.  
  31. ERROR
  32.  
  33. AT+CSTT="internet","",""
  34.  
  35.  
  36. ERROR
  37.  
  38. AT+CSTT="internet","",""
  39.  
  40.  
  41. ERROR
  42.  
  43. AT+CMEE=2
  44.  
  45.  
  46. OK
  47.  
  48. AT+CFUN=1
  49.  
  50.  
  51. OK
  52.  
  53. AT+CSTT="internet","",""
  54.  
  55.  
  56. +CME ERROR: operation not allowed
  57.  
  58. AT+CPIN?
  59.  
  60.  
  61. +CPIN: READY
  62.  
  63.  
  64.  
  65. OK
  66.  
  67. AT+CSTT="internet","",""
  68.  
  69.  
  70. +CME ERROR: operation not allowed
  71.  
  72. AT+CIICR
  73.  
  74.  
  75. OK
  76.  
  77. AT+CIFSR
  78.  
  79.  
  80. 2.128.148.37
  81.  
  82. AT+CGNSPWR=1
  83.  
  84.  
  85. OK
  86.  
  87. AT+CGNSTST=1
  88.  
  89.  
  90. OK
  91.  
  92. $GPGGA,143546.102,,,,,0,0,,,M,,M,,*4A
  93.  
  94. $GPGLL,,,,,143546.102,V,N*78
  95.  
  96. $GPGSA,A,1,,,,,,,,,,,,,,,*1E
  97.  
  98. $GPGSV,1,1,02,31,,,43,23,,,36*7A
  99.  
  100. $GPRMC,143546.102,V,,,,,0.00,0.00,090180,,,N*4F
  101.  
  102. $GPVTG,0.00,T,,M,0.00,N,0.00,K,N*32
  103.  
  104. $GPGGA,143547.102,,,,,0,0,,,M,,M,,*4B
  105.  
  106. $GPGLL,,,,,143547.102,V,N*79
  107.  
  108. $GPGSA,A,1,,,,,,,,,,,,,,,*1E
  109.  
  110. $GPGSV,1,1,02,31,,,43,23,,,36*7A
  111.  
  112. $GPRMC,143547.102,V,,,,,0.00,0.00,090180,,,N*4E
  113.  
  114. $GPVTG,0.00,T,,M,0.00,N,0.00,K,N*32
  115.  
  116. $GPGGA,143548.102,,,,,0,0,,,M,,M,,*44
  117.  
  118. $GPGLL,,,,,143548.102,V,N*76
  119.  
  120. $GPGSA,A,1,,,,,,,,,,,,,,,*1E
  121.  
  122. $GPGSV,1,1,02,31,,,43,23,,,36*7A
  123.  
  124. $GPRMC,143548.102,V,,,,,0.00,0.00,090180,,,N*41
  125.  
  126. $GPVTG,0.00,T,,M,0.00,N,0.00,K,N*32
  127.  
  128. $GPGGA,143549.081,,,,,0,0,,,M,,M,,*4F
  129.  
  130. $GPGLL,,,,,143549.081,V,N*7D
  131.  
  132. $GPGSA,A,1,,,,,,,,,,,,,,,*1E
  133.  
  134. $GPGSV,1,1,02,31,,,43,23,,,36*7A
  135.  
  136. $GPRMC,143549.081,V,,,,,0.00,0.00,090180,,,N*4A
  137.  
  138. $GPVTG,0.00,T,,M,0.00,N,0.00,K,N*32
  139.  
  140. $GPGGA,143549.302,,,,,0,0,,,M,,M,,*47
  141.  
  142. $GPGLL,,,,,143549.302,V,N*75
  143.  
  144. $GPGSA,A,1,,,,,,,,,,,,,,,*1E
  145.  
  146. $GPGSV,1,1,02,31,,,43,23,,,36*7A
  147.  
  148. $GPRMC,143549.302,V,,,,,0.00,0.00,090180,,,N*42
  149.  
  150. $GPVTG,0.00,T,,M,0.00,N,0.00,K,N*32
  151.  
  152. $GPGGA,143550.302,,,,,0,0,,,M,,M,,*4F
  153.  
  154. $GPGLL,,,,,143550.302,V,N*7D
  155.  
  156. $GPGSA,A,1,,,,,,,,,,,,,,,*1E
  157.  
  158. $GPGSV,1,1,02,31,,,43,23,,,35*79
  159.  
  160. $GPRMC,143550.302,V,,,,,0.00,0.00,090180,,,N*4A
  161.  
  162. $GPVTG,0.00,T,,M,0.00,N,0.00,K,N*32
  163.  
  164. $GPGGA,143551.302,,,,,0,0,,,M,,M,,*4E
  165.  
  166. $GPGLL,,,,,143551.302,V,N*7C
  167.  
  168. $GPGSA,A,1,,,,,,,,,,,,,,,*1E
  169.  
  170. $GPGSV,1,1,02,31,,,43,23,,,35*79
  171.  
  172. $GPRMC,143551.302,V,,,,,0.00,0.00,090180,,,N*4B
  173.  
  174. $GPVTG,0.00,T,,M,0.00,N,0.00,K,N*32
  175.  
  176. $GPGGA,143552.302,,,,,0,0,,,M,,M,,*4D
  177.  
  178. $GPGLL,,,,,143552.302,V,N*7F
  179.  
  180. $GPGSA,A,1,,,,,,,,,,,,,,,*1E
  181.  
  182. $GPGSV,1,1,02,31,,,43,23,,,35*79
  183.  
  184. $GPRMC,143552.302,V,,,,,0.00,0.00,090180,,,N*48
  185.  
  186. $GPVTG,0.00,T,,M,0.00,N,0.00,K,N*32
  187.  
  188. $GPGGA,143553.302,,,,,0,0,,,M,,M,,*4C
  189.  
  190. $GPGLL,,,,,143553.302,V,N*7E
  191.  
  192. $GPGSA,A,1,,,,,,,,,,,,,,,*1E
  193.  
  194. $GPGSV,1,1,02,31,,,43,23,,,34*78
  195.  
  196. $GPRMC,143553.302,V,,,,,0.00,0.00,090180,,,N*49
  197.  
  198. $GPVTG,0.00,T,,M,0.00,N,0.00,K,N*32
  199.  
  200. $GPGGA,143554.302,,,,,0,0,,,M,,M,,*4B
  201.  
  202. $GPGLL,,,,,143554.302,V,N*79
  203.  
  204. $GPGSA,A,1,,,,,,,,,,,,,,,*1E
  205.  
  206. $GPGSV,1,1,02,31,,,43,23,,,34*78
  207.  
  208. $GPRMC,143554.302,V,,,,,0.00,0.00,090180,,,N*4E
  209.  
  210. $GPVTG,0.00,T,,M,0.00,N,0.00,K,N*32
  211.  
  212. $GPGGA,143555.081,,,,,0,0,,,M,,M,,*42
  213.  
  214. $GPGLL,,,,,143555.081,V,N*70
  215.  
  216. $GPGSA,A,1,,,,,,,,,,,,,,,*1E
  217.  
  218. $GPGSV,1,1,02,31,,,43,23,,,34*78
  219.  
  220. $GPRMC,143555.081,V,,,,,0.00,0.00,090180,,,N*47
  221.  
  222. $GPVTG,0.00,T,,M,0.00,N,0.00,K,N*32
  223.  
  224. $GPGGA,143555.302,,,,,0,0,,,M,,M,,*4A
  225.  
  226. $GPGLL,,,,,143555.302,V,N*78
  227.  
  228. $GPGSA,A,1,,,,,,,,,,,,,,,*1E
  229.  
  230. $GPGSV,1,1,02,31,,,42,23,,,34*79
  231.  
  232. $GPRMC,143555.302,V,,,,,0.00,0.00,090180,,,N*4F
  233.  
  234. $GPVTG,0.00,T,,M,0.00,N,0.00,K,N*32
  235.  
  236. $GPGGA,143556.302,,,,,0,0,,,M,,M,,*49
  237.  
  238. $GPGLL,,,,,143556.302,V,N*7B
  239.  
  240. $GPGSA,A,1,,,,,,,,,,,,,,,*1E
  241.  
  242. $GPGSV,1,1,02,31,,,42,23,,,34*79
  243.  
  244. $GPRMC,143556.302,V,,,,,0.00,0.00,090180,,,N*4C
  245.  
  246. $GPVTG,0.00,T,,M,0.00,N,0.00,K,N*32
  247.  
  248. $GPGGA,143557.302,,,,,0,0,,,M,,M,,*48
  249.  
  250. $GPGLL,,,,,143557.302,V,N*7A
  251.  
  252. $GPGSA,A,1,,,,,,,,,,,,,,,*1E
  253.  
  254. $GPGSV,1,1,02,31,,,42,23,,,34*79
  255.  
  256. $GPRMC,143557.302,V,,,,,0.00,0.00,090180,,,N*4D
  257.  
  258. $GPVTG,0.00,T,,M,0.00,N,0.00,K,N*32
  259.  
  260. $GPGGA,143558.302,,,,,0,0,,,M,,M,,*47
  261.  
  262. $GPGLL,,,,,143558.302,V,N*75
  263.  
  264. $GPGSA,A,1,,,,,,,,,,,,,,,*1E
  265.  
  266. $GPGSV,1,1,02,31,,,42,23,,,34*79
  267.  
  268. $GPRMC,143558.302,V,,,,,0.00,0.00,090180,,,N*42
  269.  
  270. $GPVTG,0.00,T,,M,0.00,N,0.00,K,N*32
  271.  
  272. $GPGGA,143559.302,,,,,0,0,,,M,,M,,*46
  273.  
  274. $GPGLL,,,,,143559.302,V,N*74
  275.  
  276. $GPGSA,A,1,,,,,,,,,,,,,,,*1E
  277.  
  278. $GPGSV,1,1,03,31,,,42,23,,,34,17,,,35*78
  279.  
  280. $GPRMC,143559.302,V,,,,,0.00,0.00,090180,,,N*43
  281.  
  282. $GPVTG,0.00,T,,M,0.00,N,0.00,K,N*32
  283.  
  284. $GPGGA,143600.302,,,,,0,0,,,M,,M,,*49
  285.  
  286. $GPGLL,,,,,143600.302,V,N*7B
  287.  
  288. $GPGSA,A,1,,,,,,,,,,,,,,,*1E
  289.  
  290. $GPGSV,1,1,04,31,,,42,23,,,34,12,,,24,17,,,35*7A
  291.  
  292. $GPRMC,143600.302,V,,,,,0.00,0.00,090180,,,N*4C
  293.  
  294. $GPVTG,0.00,T,,M,0.00,N,0.00,K,N*32
  295.  
  296. $GPGGA,143601.081,,,,,0,0,,,M,,M,,*40
  297.  
  298. $GPGLL,,,,,143601.081,V,N*72
  299.  
  300. $GPGSA,A,1,,,,,,,,,,,,,,,*1E
  301.  
  302. $GPGSV,1,1,04,31,,,42,23,,,34,12,,,27,17,,,34*78
  303.  
  304. $GPRMC,143601.081,V,,,,,0.00,0.00,180919,,,N*4D
  305.  
  306. $GPVTG,0.00,T,,M,0.00,N,0.00,K,N*32
  307.  
  308. $GPGGA,143601.302,,,,,0,0,,,M,,M,,*48
  309.  
  310. $GPGLL,,,,,143601.302,V,N*7A
  311.  
  312. $GPGSA,A,1,,,,,,,,,,,,,,,*1E
  313.  
  314. $GPGSV,1,1,04,31,,,42,23,,,34,12,,,26,17,,,36*7B
  315.  
  316. $GPRMC,143601.302,V,,,,,0.00,0.00,180919,,,N*45
  317.  
  318. $GPVTG,0.00,T,,M,0.00,N,0.00,K,N*32
  319.  
  320. $GPGGA,143602.302,,,,,0,0,,,M,,M,,*4B
  321.  
  322. $GPGLL,,,,,143602.302,V,N*79
  323.  
  324. $GPGSA,A,1,,,,,,,,,,,,,,,*1E
  325.  
  326. $GPGSV,1,1,04,31,,,42,23,,,33,12,,,27,17,,,35*7E
  327.  
  328. $GPRMC,143602.302,V,,,,,0.00,0.00,180919,,,N*46
  329.  
  330. $GPVTG,0.00,T,,M,0.00,N,0.00,K,N*32
  331.  
  332. $GPGGA,143603.302,,,,,0,0,,,M,,M,,*4A
  333.  
  334. $GPGLL,,,,,143603.302,V,N*78
  335.  
  336. $GPGSA,A,1,,,,,,,,,,,,,,,*1E
  337.  
  338. $GPGSV,1,1,04,31,,,42,23,,,33,12,,,24,17,,,32*7A
  339.  
  340. $GPRMC,143603.302,V,,,,,0.00,0.00,180919,,,N*47
  341.  
  342. $GPVTG,0.00,T,,M,0.00,N,0.00,K,N*32
  343.  
  344. $GPGGA,143604.302,,,,,0,0,,,M,,M,,*4D
  345.  
  346. $GPGLL,,,,,143604.302,V,N*7F
  347.  
  348. $GPGSA,A,1,,,,,,,,,,,,,,,*1E
  349.  
  350. $GPGSV,1,1,04,31,,,42,23,,,33,12,,,28,17,,,32*76
  351.  
  352. $GPRMC,143604.302,V,,,,,0.00,0.00,180919,,,N*40
  353.  
  354. $GPVTG,0.00,T,,M,0.00,N,0.00,K,N*32
  355.  
  356. $GPGGA,143605.302,,,,,0,0,,,M,,M,,*4C
  357.  
  358. $GPGLL,,,,,143605.302,V,N*7E
  359.  
  360. $GPGSA,A,1,,,,,,,,,,,,,,,*1E
  361.  
  362. $GPGSV,1,1,04,31,,,42,23,,,33,12,,,27,17,,,32*79
  363.  
  364. $GPRMC,143605.302,V,,,,,0.00,0.00,180919,,,N*41
  365.  
  366. $GPVTG,0.00,T,,M,0.00,N,0.00,K,N*32
  367.  
  368. $GPGGA,143606.302,,,,,0,0,,,M,,M,,*4F
  369.  
  370. $GPGLL,,,,,143606.302,V,N*7D
  371.  
  372. $GPGSA,A,1,,,,,,,,,,,,,,,*1E
  373.  
  374. $GPGSV,1,1,04,31,,,42,23,,,34,12,,,27,17,,,31*7D
  375.  
  376. $GPRMC,143606.302,V,,,,,0.00,0.00,180919,,,N*42
  377.  
  378. $GPVTG,0.00,T,,M,0.00,N,0.00,K,N*32
  379.  
  380. $GPGGA,143606.081,,,,,0,0,,,M,,M,,*47
  381.  
  382. $GPGLL,,,,,143606.081,V,N*75
  383.  
  384. $GPGSA,A,1,,,,,,,,,,,,,,,*1E
  385.  
  386. $GPGSV,1,1,04,31,,,42,23,,,33,12,,,26,17,,,30*7A
  387.  
  388. $GPRMC,143606.081,V,,,,,0.00,0.00,180919,,,N*4A
  389.  
  390. $GPVTG,0.00,T,,M,0.00,N,0.00,K,N*32
  391.  
  392. $GPGGA,143606.300,,,,,0,0,,,M,,M,,*4D
  393.  
  394. $GPGLL,,,,,143606.300,V,N*7F
  395.  
  396. $GPGSA,A,1,,,,,,,,,,,,,,,*1E
  397.  
  398. $GPGSV,1,1,04,31,,,42,23,,,34,12,,,25,17,,,30*7E
  399.  
  400. $GPRMC,143606.300,V,,,,,0.00,0.00,180919,,,N*40
  401.  
  402. $GPVTG,0.00,T,,M,0.00,N,0.00,K,N*32
  403.  
  404. $GPGGA,143607.300,,,,,0,0,,,M,,M,,*4C
  405.  
  406. $GPGLL,,,,,143607.300,V,N*7E
  407.  
  408. $GPGSA,A,1,,,,,,,,,,,,,,,*1E
  409.  
  410. $GPGSV,1,1,04,31,,,42,23,,,33,12,,,25,17,,,31*78
  411.  
  412. $GPRMC,143607.300,V,,,,,0.00,0.00,180919,,,N*41
  413.  
  414. $GPVTG,0.00,T,,M,0.00,N,0.00,K,N*32
  415.  
  416. $GPGGA,143608.300,,,,,0,0,,,M,,M,,*43
  417.  
  418. $GPGLL,,,,,143608.300,V,N*71
  419.  
  420. $GPGSA,A,1,,,,,,,,,,,,,,,*1E
  421.  
  422. $GPGSV,1,1,04,31,,,43,23,,,33,12,,,25,17,,,30*78
  423.  
  424. $GPRMC,143608.300,V,,,,,0.00,0.00,180919,,,N*4E
  425.  
  426. $GPVTG,0.00,T,,M,0.00,N,0.00,K,N*32
  427.  
  428. $GPGGA,143609.300,,,,,0,0,,,M,,M,,*42
  429.  
  430. $GPGLL,,,,,143609.300,V,N*70
  431.  
  432. $GPGSA,A,1,,,,,,,,,,,,,,,*1E
  433.  
  434. $GPGSV,1,1,04,31,,,43,23,,,33,12,,,26,17,,,31*7A
  435.  
  436. $GPRMC,143609.300,V,,,,,0.00,0.00,180919,,,N*4F
  437.  
  438. $GPVTG,0.00,T,,M,0.00,N,0.00,K,N*32
  439.  
  440. $GPGGA,143610.300,,,,,0,0,,,M,,M,,*4A
  441.  
  442. $GPGLL,,,,,143610.300,V,N*78
  443.  
  444. $GPGSA,A,1,,,,,,,,,,,,,,,*1E
  445.  
  446. $GPGSV,1,1,04,31,,,43,23,,,33,12,,,26,17,,,31*7A
  447.  
  448. $GPRMC,143610.300,V,,,,,0.00,0.00,180919,,,N*47
  449.  
  450. $GPVTG,0.00,T,,M,0.00,N,0.00,K,N*32
  451.  
  452. $GPGGA,143611.300,,,,,0,0,,,M,,M,,*4B
  453.  
  454. $GPGLL,,,,,143611.300,V,N*79
  455.  
  456. $GPGSA,A,1,,,,,,,,,,,,,,,*1E
  457.  
  458. $GPGSV,1,1,04,31,,,43,23,,,34,12,,,27,17,,,31*7C
  459.  
  460. $GPRMC,143611.300,V,,,,,0.00,0.00,180919,,,N*46
  461.  
  462. $GPVTG,0.00,T,,M,0.00,N,0.00,K,N*32
  463.  
  464. $GPGGA,143612.081,,,,,0,0,,,M,,M,,*42
  465.  
  466. $GPGLL,,,,,143612.081,V,N*70
  467.  
  468. $GPGSA,A,1,,,,,,,,,,,,,,,*1E
  469.  
  470. $GPGSV,1,1,04,31,,,43,23,,,34,12,,,27,17,,,32*7F
  471.  
  472. $GPRMC,143612.081,V,,,,,0.00,0.00,180919,,,N*4F
  473.  
  474. $GPVTG,0.00,T,,M,0.00,N,0.00,K,N*32
  475.  
  476. $GPGGA,143612.300,,,,,0,0,,,M,,M,,*48
  477.  
  478. $GPGLL,,,,,143612.300,V,N*7A
  479.  
  480. $GPGSA,A,1,,,,,,,,,,,,,,,*1E
  481.  
  482. $GPGSV,1,1,04,31,,,43,23,,,34,12,,,27,17,,,32*7F
  483.  
  484. $GPRMC,143612.300,V,,,,,0.00,0.00,180919,,,N*45
  485.  
  486. $GPVTG,0.00,T,,M,0.00,N,0.00,K,N*32
  487.  
  488. $GPGGA,143613.300,,,,,0,0,,,M,,M,,*49
  489.  
  490. $GPGLL,,,,,143613.300,V,N*7B
  491.  
  492. $GPGSA,A,1,,,,,,,,,,,,,,,*1E
  493.  
  494. $GPGSV,2,1,05,31,,,43,23,,,33,12,,,26,17,,,31*78
  495.  
  496. $GPGSV,2,2,05,09,,,37*71
  497.  
  498. $GPRMC,143613.300,V,,,,,0.00,0.00,180919,,,N*44
  499.  
  500. $GPVTG,0.00,T,,M,0.00,N,0.00,K,N*32
  501.  
  502. $GPGGA,143614.300,,,,,0,0,,,M,,M,,*4E
  503.  
  504. $GPGLL,,,,,143614.300,V,N*7C
  505.  
  506. $GPGSA,A,1,,,,,,,,,,,,,,,*1E
  507.  
  508. $GPGSV,2,1,05,31,,,43,23,,,33,12,,,26,17,,,31*78
  509.  
  510. $GPGSV,2,2,05,09,,,38*7E
  511.  
  512. $GPRMC,143614.300,V,,,,,0.00,0.00,180919,,,N*43
  513.  
  514. $GPVTG,0.00,T,,M,0.00,N,0.00,K,N*32
  515.  
  516. $GPGGA,143615.300,,,,,0,0,,,M,,M,,*4F
  517.  
  518. $GPGLL,,,,,143615.300,V,N*7D
  519.  
  520. $GPGSA,A,1,,,,,,,,,,,,,,,*1E
  521.  
  522. $GPGSV,2,1,05,31,,,43,23,,,33,12,,,26,17,,,31*78
  523.  
  524. $GPGSV,2,2,05,09,,,38*7E
  525.  
  526. $GPRMC,143615.300,V,,,,,0.00,0.00,180919,,,N*42
  527.  
  528. $GPVTG,0.00,T,,M,0.00,N,0.00,K,N*32
  529.  
  530. $GPGGA,143616.300,,,,,0,0,,,M,,M,,*4C
  531.  
  532. $GPGLL,,,,,143616.300,V,N*7E
  533.  
  534. $GPGSA,A,1,,,,,,,,,,,,,,,*1E
  535.  
  536. $GPGSV,2,1,05,31,,,43,23,,,34,12,,,26,17,,,30*7E
  537.  
  538. $GPGSV,2,2,05,09,,,36*70
  539.  
  540. $GPRMC,143616.300,V,,,,,0.00,0.00,180919,,,N*41
  541.  
  542. $GPVTG,0.00,T,,M,0.00,N,0.00,K,N*32
  543.  
  544. $GPGGA,143617.300,,,,,0,0,,,M,,M,,*4D
  545.  
  546. $GPGLL,,,,,143617.300,V,N*7F
  547.  
  548. $GPGSA,A,1,,,,,,,,,,,,,,,*1E
  549.  
  550. $GPGSV,2,1,05,31,,,44,23,,,34,12,,,26,17,,,31*78
  551.  
  552. $GPGSV,2,2,05,09,,,37*71
  553.  
  554. $GPRMC,143617.300,V,,,,,0.00,0.00,180919,,,N*40
  555.  
  556. $GPVTG,0.00,T,,M,0.00,N,0.00,K,N*32
  557.  
  558. $GPGGA,143618.081,,,,,0,0,,,M,,M,,*48
  559.  
  560. $GPGLL,,,,,143618.081,V,N*7A
  561.  
  562. $GPGSA,A,1,,,,,,,,,,,,,,,*1E
  563.  
  564. $GPGSV,2,1,05,31,,,44,23,,,34,12,,,25,17,,,29*72
  565.  
  566. $GPGSV,2,2,05,09,,,37*71
  567.  
  568. $GPRMC,143618.081,V,,,,,0.00,0.00,180919,,,N*45
  569.  
  570. $GPVTG,0.00,T,,M,0.00,N,0.00,K,N*32
  571.  
  572. $GPGGA,143618.300,,,,,0,0,,,M,,M,,*42
  573.  
  574. $GPGLL,,,,,143618.300,V,N*70
  575.  
  576. $GPGSA,A,1,,,,,,,,,,,,,,,*1E
  577.  
  578. $GPGSV,2,1,05,31,,,44,23,,,35,12,,,25,17,,,28*72
  579.  
  580. $GPGSV,2,2,05,09,,,37*71
  581.  
  582. $GPRMC,143618.300,V,,,,,0.00,0.00,180919,,,N*4F
  583.  
  584. $GPVTG,0.00,T,,M,0.00,N,0.00,K,N*32
  585.  
  586. $GPGGA,143619.300,,,,,0,0,,,M,,M,,*43
  587.  
  588. $GPGLL,,,,,143619.300,V,N*71
  589.  
  590. $GPGSA,A,1,,,,,,,,,,,,,,,*1E
  591.  
  592. $GPGSV,2,1,05,31,,,44,23,,,34,12,,,26,17,,,29*71
  593.  
  594. $GPGSV,2,2,05,09,,,37*71
  595.  
  596. $GPRMC,143619.300,V,,,,,0.00,0.00,180919,,,N*4E
  597.  
  598. $GPVTG,0.00,T,,M,0.00,N,0.00,K,N*32
  599.  
  600. $GPGGA,143620.300,,,,,0,0,,,M,,M,,*49
  601.  
  602. $GPGLL,,,,,143620.300,V,N*7B
  603.  
  604. $GPGSA,A,1,,,,,,,,,,,,,,,*1E
  605.  
  606. $GPGSV,2,1,05,31,,,44,23,,,35,12,,,26,17,,,29*70
  607.  
  608. $GPGSV,2,2,05,09,,,37*71
  609.  
  610. $GPRMC,143620.300,V,,,,,0.00,0.00,180919,,,N*44
  611.  
  612. $GPVTG,0.00,T,,M,0.00,N,0.00,K,N*32
  613.  
  614. $GPGGA,143621.300,,,,,0,0,,,M,,M,,*48
  615.  
  616. $GPGLL,,,,,143621.300,V,N*7A
  617.  
  618. $GPGSA,A,1,,,,,,,,,,,,,,,*1E
  619.  
  620. $GPGSV,2,1,05,31,,,44,23,,,35,12,,,27,17,,,30*79
  621.  
  622. $GPGSV,2,2,05,09,,,37*71
  623.  
  624. $GPRMC,143621.300,V,,,,,0.00,0.00,180919,,,N*45
  625.  
  626. $GPVTG,0.00,T,,M,0.00,N,0.00,K,N*32
  627.  
  628. $GPGGA,143622.300,,,,,0,0,,,M,,M,,*4B
  629.  
  630. $GPGLL,,,,,143622.300,V,N*79
  631.  
  632. $GPGSA,A,1,,,,,,,,,,,,,,,*1E
  633.  
  634. $GPGSV,2,1,05,31,,,44,23,,,35,12,,,28,17,,,30*76
  635.  
  636. $GPGSV,2,2,05,09,,,37*71
  637.  
  638. $GPRMC,143622.300,V,,,,,0.00,0.00,180919,,,N*46
  639.  
  640. $GPVTG,0.00,T,,M,0.00,N,0.00,K,N*32
  641.  
  642. $GPGGA,143623.300,,,,,0,0,,,M,,M,,*4A
  643.  
  644. $GPGLL,,,,,143623.300,V,N*78
  645.  
  646. $GPGSA,A,1,,,,,,,,,,,,,,,*1E
  647.  
  648. $GPGSV,2,1,05,31,,,44,23,,,34,12,,,28,17,,,29*7F
  649.  
  650. $GPGSV,2,2,05,09,,,37*71
  651.  
  652. $GPRMC,143623.300,V,,,,,0.00,0.00,180919,,,N*47
  653.  
  654. $GPVTG,0.00,T,,M,0.00,N,0.00,K,N*32
  655.  
  656. $GPGGA,143624.081,,,,,0,0,,,M,,M,,*47
  657.  
  658. $GPGLL,,,,,143624.081,V,N*75
  659.  
  660. $GPGSA,A,1,,,,,,,,,,,,,,,*1E
  661.  
  662. $GPGSV,2,1,05,31,,,44,23,,,34,12,,,28,17,,,30*77
  663.  
  664. $GPGSV,2,2,05,09,,,36*70
  665.  
  666. $GPRMC,143624.081,V,,,,,0.00,0.00,180919,,,N*4A
  667.  
  668. $GPVTG,0.00,T,,M,0.00,N,0.00,K,N*32
  669.  
  670. $GPGGA,143624.300,,,,,0,0,,,M,,M,,*4D
  671.  
  672. $GPGLL,,,,,143624.300,V,N*7F
  673.  
  674. $GPGSA,A,1,,,,,,,,,,,,,,,*1E
  675.  
  676. $GPGSV,2,1,05,31,,,44,23,,,34,12,,,29,17,,,30*76
  677.  
  678. $GPGSV,2,2,05,09,,,36*70
  679.  
  680. $GPRMC,143624.300,V,,,,,0.00,0.00,180919,,,N*40
  681.  
  682. $GPVTG,0.00,T,,M,0.00,N,0.00,K,N*32
  683.  
  684. $GPGGA,143625.300,,,,,0,0,,,M,,M,,*4C
  685.  
  686. $GPGLL,,,,,143625.300,V,N*7E
  687.  
  688. $GPGSA,A,1,,,,,,,,,,,,,,,*1E
  689.  
  690. $GPGSV,2,1,05,31,,,44,23,,,35,12,,,29,17,,,31*76
  691.  
  692. $GPGSV,2,2,05,09,,,36*70
  693.  
  694. $GPRMC,143625.300,V,,,,,0.00,0.00,180919,,,N*41
  695.  
  696. $GPVTG,0.00,T,,M,0.00,N,0.00,K,N*32
  697.  
  698. $GPGGA,143626.300,,,,,0,0,,,M,,M,,*4F
  699.  
  700. $GPGLL,,,,,143626.300,V,N*7D
  701.  
  702. $GPGSA,A,1,,,,,,,,,,,,,,,*1E
  703.  
  704. $GPGSV,2,1,05,31,,,44,23,,,34,12,,,29,17,,,31*77
  705.  
  706. $GPGSV,2,2,05,09,,,36*70
  707.  
  708. $GPRMC,143626.300,V,,,,,0.00,0.00,180919,,,N*42
  709.  
  710. $GPVTG,0.00,T,,M,0.00,N,0.00,K,N*32
  711.  
  712. $GPGGA,143627.300,,,,,0,0,,,M,,M,,*4E
  713.  
  714. $GPGLL,,,,,143627.300,V,N*7C
  715.  
  716. $GPGSA,A,1,,,,,,,,,,,,,,,*1E
  717.  
  718. $GPGSV,2,1,05,31,,,44,23,,,34,12,,,29,17,,,31*77
  719.  
  720. $GPGSV,2,2,05,09,,,36*70
  721.  
  722. $GPRMC,143627.300,V,,,,,0.00,0.00,180919,,,N*43
  723.  
  724. $GPVTG,0.00,T,,M,0.00,N,0.00,K,N*32
  725.  
  726. AT+CIPSTART="TCP", "dev.laerkeholt.dk", 80
  727.  
  728.  
  729. OK
  730.  
  731. $GPGGA,143628.300,,,,,0,0,,,M,,M,,*41
  732.  
  733. $GPGLL,,,,,143628.300,V,N*73
  734.  
  735. $GPGSA,A,1,,,,,,,,,,,,,,,*1E
  736.  
  737. $GPGSV,2,1,05,31,,,44,23,,,34,12,,,29,17,,,30*76
  738.  
  739. $GPGSV,2,2,05,09,,,36*70
  740.  
  741. $GPRMC,143628.300,V,,,,,0.00,0.00,180919,,,N*4C
  742.  
  743. $GPVTG,0.00,T,,M,0.00,N,0.00,K,N*32
  744.  
  745. $GPGGA,143629.300,,,,,0,0,,,M,,M,,*40
  746.  
  747. $GPGLL,,,,,143629.300,V,N*72
  748.  
  749. $GPGSA,A,1,,,,,,,,,,,,,,,*1E
  750.  
  751. $GPGSV,2,1,05,31,,,44,23,,,34,12,,,30,17,,,29*76
  752.  
  753. $GPGSV,2,2,05,09,,,37*71
  754.  
  755. $GPRMC,143629.300,V,,,,,0.00,0.00,180919,,,N*4D
  756.  
  757. $GPVTG,0.00,T,,M,0.00,N,0.00,K,N*32
  758.  
  759.  
  760.  
  761. CONNECT OK
  762.  
  763. $GPGGA,143630.090,,,,,0,3,,,M,,M,,*41
  764.  
  765. $GPGLL,,,,,143630.090,V,N*70
  766.  
  767. $GPGSA,A,1,,,,,,,,,,,,,,,*1E
  768.  
  769. $GPGSV,2,1,05,31,,,43,23,,,32,12,,,29,17,,,28*7E
  770.  
  771. $GPGSV,2,2,05,09,,,37*71
  772.  
  773. $GPRMC,143630.090,V,,,,,0.38,66.05,180919,,,N*71
  774.  
  775. $GPVTG,66.05,T,,M,0.38,N,0.70,K,N*0B
  776.  
  777. $GPGGA,143630.310,,,,,0,5,,,M,,M,,*4C
  778.  
  779. $GPGLL,,,,,143630.310,V,N*7B
  780.  
  781. $GPGSA,A,1,,,,,,,,,,,,,,,*1E
  782.  
  783. $GPGSV,2,1,05,23,71,173,32,09,40,215,36,17,25,241,27,31,22,042,42*73
  784.  
  785. $GPGSV,2,2,05,12,03,323,29*45
  786.  
  787. $GPRMC,143630.310,V,,,,,0.32,98.86,180919,,,N*7A
  788.  
  789. $GPVTG,98.86,T,,M,0.32,N,0.60,K,N*0A
  790.  
  791. $GPGGA,143631.310,,,,,0,4,,,M,,M,,*4C
  792.  
  793. $GPGLL,,,,,143631.310,V,N*7A
  794.  
  795. $GPGSA,A,1,,,,,,,,,,,,,,,*1E
  796.  
  797. $GPGSV,2,1,05,23,71,173,32,09,40,215,35,17,25,241,27,31,22,042,42*70
  798.  
  799. $GPGSV,2,2,05,12,03,323,29*45
  800.  
  801. $GPRMC,143631.310,V,,,,,1.64,133.64,180919,,,N*45
  802.  
  803. $GPVTG,133.64,T,,M,1.64,N,3.03,K,N*32
  804.  
  805. $GPGGA,143633.000,5624.3797,N,00853.0696,E,1,4,2.94,85.2,M,43.2,M,,*65
  806.  
  807. $GPGLL,5624.3797,N,00853.0696,E,143633.000,A,A*51
  808.  
  809. $GPGSA,A,3,31,23,17,09,,,,,,,,,3.10,2.94,0.98*02
  810.  
  811. $GPGSV,2,1,05,23,71,173,32,09,40,215,35,17,25,241,27,31,22,042,42*70
  812.  
  813. $GPGSV,2,2,05,12,03,323,29*45
  814.  
  815. $GPRMC,143633.000,A,5624.3797,N,00853.0696,E,0.39,332.45,180919,,,A*67
  816.  
  817. $GPVTG,332.45,T,,M,0.39,N,0.72,K,A*31
  818.  
  819. AT+CIPSTART="TCP", "dev.laerkeholt.dk", 80
  820.  
  821.  
  822. ERROR
  823.  
  824.  
  825.  
  826. ALREADY CONNECT
  827.  
  828. $GPGGA,143634.000,5624.3786,N,00853.0716,E,1,4,2.94,83.3,M,43.2,M,,*6C
  829.  
  830. $GPGLL,5624.3786,N,00853.0716,E,143634.000,A,A*5F
  831.  
  832. $GPGSA,A,3,31,23,17,09,,,,,,,,,3.10,2.94,0.98*02
  833.  
  834. $GPGSV,2,1,05,23,71,173,32,09,40,215,35,17,25,241,26,31,22,042,42*71
  835.  
  836. $GPGSV,2,2,05,12,03,323,29*45
  837.  
  838. $GPRMC,143634.000,A,5624.3786,N,00853.0716,E,1.37,145.14,180919,,,A*60
  839.  
  840. $GPVTG,145.14,T,,M,1.37,N,2.54,K,A*3E
  841.  
  842. $GPGGA,143635.000,5624.3778,N,00853.0729,E,1,4,2.94,82.1,M,43.2,M,,*63
  843.  
  844. $GPGLL,5624.3778,N,00853.0729,E,143635.000,A,A*53
  845.  
  846. $GPGSA,A,3,31,23,17,09,,,,,,,,,3.10,2.94,0.98*02
  847.  
  848. $GPGSV,2,1,05,23,71,173,32,09,40,215,35,17,25,241,25,31,22,042,42*72
  849.  
  850. $GPGSV,2,2,05,12,03,323,30*4D
  851.  
  852. $GPRMC,143635.000,A,5624.3778,N,00853.0729,E,0.99,148.50,180919,,,A*64
  853.  
  854. $GPVTG,148.50,T,,M,0.99,N,1.84,K,A*38
  855.  
  856. $GPGGA,143636.000,5624.3767,N,00853.0746,E,1,4,2.94,78.1,M,43.2,M,,*62
  857.  
  858. $GPGLL,5624.3767,N,00853.0746,E,143636.000,A,A*57
  859.  
  860. $GPGSA,A,3,31,23,17,09,,,,,,,,,3.10,2.94,0.98*02
  861.  
  862. $GPGSV,2,1,05,23,71,173,32,09,40,215,35,17,25,241,24,31,22,042,42*73
  863.  
  864. $GPGSV,2,2,05,12,03,323,30*4D
  865.  
  866. $GPRMC,143636.000,A,5624.3767,N,00853.0746,E,0.53,129.92,180919,,,A*6F
  867.  
  868. $GPVTG,129.92,T,,M,0.53,N,0.97,K,A*34
  869.  
  870. $GPGGA,143637.000,5624.3758,N,00853.0736,E,1,4,2.94,71.9,M,43.2,M,,*69
  871.  
  872. $GPGLL,5624.3758,N,00853.0736,E,143637.000,A,A*5D
  873.  
  874. $GPGSA,A,3,31,23,17,09,,,,,,,,,3.10,2.94,0.98*02
  875.  
  876. $GPGSV,2,1,05,23,71,173,32,09,40,215,35,17,25,241,24,31,22,042,42*73
  877.  
  878. $GPGSV,2,2,05,12,03,323,31*4C
  879.  
  880. $GPRMC,143637.000,A,5624.3758,N,00853.0736,E,0.24,289.82,180919,,,A*6D
  881.  
  882. $GPVTG,289.82,T,,M,0.24,N,0.45,K,A*33
  883.  
  884. AT+CIPSTART="TCP", "dev.laerkeholt.dk", 80
  885.  
  886.  
  887. ERROR
  888.  
  889.  
  890.  
  891. ALREADY CONNECT
  892.  
  893. $GPGGA,143638.000,5624.3738,N,00853.0768,E,1,4,2.94,65.1,M,43.2,M,,*66
  894.  
  895. $GPGLL,5624.3738,N,00853.0768,E,143638.000,A,A*5F
  896.  
  897. $GPGSA,A,3,31,23,17,09,,,,,,,,,3.10,2.94,0.98*02
  898.  
  899. $GPGSV,2,1,05,23,71,173,32,09,40,215,35,17,25,241,24,31,22,042,42*73
  900.  
  901. $GPGSV,2,2,05,12,03,323,31*4C
  902.  
  903. $GPRMC,143638.000,A,5624.3738,N,00853.0768,E,0.86,341.31,180919,,,A*6A
  904.  
  905. $GPVTG,341.31,T,,M,0.86,N,1.59,K,A*3A
  906.  
  907. $GPGGA,143639.000,5624.3741,N,00853.0757,E,1,4,2.94,68.1,M,43.2,M,,*68
  908.  
  909. $GPGLL,5624.3741,N,00853.0757,E,143639.000,A,A*5C
  910.  
  911. $GPGSA,A,3,31,23,17,09,,,,,,,,,3.10,2.94,0.98*02
  912.  
  913. $GPGSV,2,1,05,23,71,173,32,09,40,215,35,17,25,241,23,31,22,042,42*74
  914.  
  915. $GPGSV,2,2,05,12,03,323,31*4C
  916.  
  917. $GPRMC,143639.000,A,5624.3741,N,00853.0757,E,1.01,131.90,180919,,,A*69
  918.  
  919. $GPVTG,131.90,T,,M,1.01,N,1.86,K,A*38
  920.  
  921. $GPGGA,143640.000,5624.3738,N,00853.0753,E,1,4,2.94,66.9,M,43.2,M,,*6A
  922.  
  923. $GPGLL,5624.3738,N,00853.0753,E,143640.000,A,A*58
  924.  
  925. $GPGSA,A,3,31,23,17,09,,,,,,,,,3.10,2.94,0.98*02
  926.  
  927. $GPGSV,2,1,05,23,71,173,32,09,40,215,35,17,25,241,23,31,22,042,42*74
  928.  
  929. $GPGSV,2,2,05,12,03,323,31*4C
  930.  
  931. $GPRMC,143640.000,A,5624.3738,N,00853.0753,E,1.37,315.42,180919,,,A*63
  932.  
  933. $GPVTG,315.42,T,,M,1.37,N,2.53,K,A*3D
  934.  
  935. $GPGGA,143641.000,5624.3723,N,00853.0775,E,1,4,2.94,61.9,M,43.2,M,,*62
  936.  
  937. $GPGLL,5624.3723,N,00853.0775,E,143641.000,A,A*57
  938.  
  939. $GPGSA,A,3,31,23,17,09,,,,,,,,,3.10,2.94,0.98*02
  940.  
  941. $GPGSV,2,1,05,23,71,173,32,09,40,215,35,17,25,241,22,31,22,042,42*75
  942.  
  943. $GPGSV,2,2,05,12,03,323,31*4C
  944.  
  945. $GPRMC,143641.000,A,5624.3723,N,00853.0775,E,0.20,290.29,180919,,,A*6A
  946.  
  947. $GPVTG,290.29,T,,M,0.20,N,0.38,K,A*34
  948.  
  949. $GPGGA,143642.000,5624.3696,N,00853.0821,E,1,4,2.94,48.9,M,43.2,M,,*6B
  950.  
  951. $GPGLL,5624.3696,N,00853.0821,E,143642.000,A,A*55
  952.  
  953. $GPGSA,A,3,31,23,17,09,,,,,,,,,3.10,2.94,0.98*02
  954.  
  955. $GPGSV,2,1,05,23,71,173,32,09,40,215,35,17,25,241,22,31,22,042,42*75
  956.  
  957. $GPGSV,2,2,05,12,03,323,31*4C
  958.  
  959. $GPRMC,143642.000,A,5624.3696,N,00853.0821,E,1.11,122.28,180919,,,A*60
  960.  
  961. $GPVTG,122.28,T,,M,1.11,N,2.06,K,A*33
  962.  
  963. AT+CIPSTART="TCP", "dev.laerkeholt.dk", 80
  964.  
  965.  
  966. ERROR
  967.  
  968.  
  969.  
  970. ALREADY CONNECT
  971.  
  972. AT+CIPSTART="TCP", "dev.laerkeholt.dk", 80
  973.  
  974.  
  975. ERROR
  976.  
  977.  
  978.  
  979. ALREADY CONNECT
  980.  
  981. AT+CIPSTART="TCP", "dev.laerkeholt.dk", 80
  982.  
  983.  
  984. ERROR
  985.  
  986.  
  987.  
  988. ALREADY CONNECT
  989.  
  990. AT+CIPSTART="TCP", "dev.laerkeholt.dk", 80
  991.  
  992.  
  993. ERROR
  994.  
  995.  
  996.  
  997. ALREADY CONNECT
  998.  
  999. AT+CIPSTART="TCP", "dev.laerkeholt.dk", 80
  1000.  
  1001.  
  1002. ERROR
  1003.  
  1004.  
  1005.  
  1006. ALREADY CONNECT
  1007.  
  1008. AT+CIPSTART="TCP", "dev.laerkeholt.dk", 80
  1009.  
  1010.  
  1011. ERROR
  1012.  
  1013.  
  1014.  
  1015. ALREADY CONNECT
  1016.  
  1017. $GPGGA,143643.000,5624.3697,N,00853.0819,E,1,4,2.95,49.5,M,43.2,M,,*6C
  1018.  
  1019. $GPGLL,5624.3697,N,00853.0819,E,143643.000,A,A*5E
  1020.  
  1021. $GPGSA,A,3,31,23,17,09,,,,,,,,,3.11,2.95,0.98*02
  1022.  
  1023. $GPGSV,2,1,06,23,71,173,32,09,40,215,35,19,32,257,,17,25,241,21*7E
  1024.  
  1025. $GPGSV,2,2,06,31,22,042,42,12,03,323,31*7D
  1026.  
  1027. $GPRMC,143643.000,A,5624.3697,N,00853.0819,E,0.45,122.06,180919,,,A*67
  1028.  
  1029. $GPVTG,122.06,T,,M,0.45,N,0.84,K,A*37
  1030.  
  1031. AT+CIPSTART="TCP", "dev.laerkeholt.dk", 80
  1032.  
  1033.  
  1034. ERROR
  1035.  
  1036.  
  1037.  
  1038. ALREADY CONNECT
  1039.  
  1040. AT+CIPSTART="TCP", "dev.laerkeholt.dk", 80
  1041.  
  1042.  
  1043. ERROR
  1044.  
  1045.  
  1046.  
  1047. ALREADY CONNECT
  1048.  
  1049. AT+CIPSTART="TCP", "dev.laerkeholt.dk", 80
  1050.  
  1051.  
  1052. ERROR
  1053.  
  1054.  
  1055.  
  1056. ALREADY CONNECT
  1057.  
  1058. AT+CIPSTART="TCP", "dev.laerkeholt.dk", 80
  1059.  
  1060.  
  1061. ERROR
  1062.  
  1063.  
  1064.  
  1065. ALREADY CONNECT
  1066.  
  1067. $GPGGA,143644.000,5624.3688,N,00853.0829,E,1,4,2.94,44.0,M,43.2,M,,*6F
  1068.  
  1069. $GPGLL,5624.3688,N,00853.0829,E,143644.000,A,A*54
  1070.  
  1071. $GPGSA,A,3,31,23,17,09,,,,,,,,,3.10,2.94,0.98*02
  1072.  
  1073. $GPGSV,2,1,06,23,71,173,32,09,40,215,35,19,32,257,,17,25,241,21*7E
  1074.  
  1075. $GPGSV,2,2,06,31,22,042,42,12,03,323,31*7D
  1076.  
  1077. $GPRMC,143644.000,A,5624.3688,N,00853.0829,E,1.12,345.06,180919,,,A*6D
  1078.  
  1079. $GPVTG,345.06,T,,M,1.12,N,2.08,K,A*31
  1080.  
  1081. AT+CIPSTART="TCP", "dev.laerkeholt.dk", 80
  1082.  
  1083.  
  1084. ERROR
  1085.  
  1086.  
  1087.  
  1088. ALREADY CONNECT
  1089.  
  1090. $GPGGA,143645.000,5624.3680,N,00853.0836,E,1,4,2.95,42.1,M,43.2,M,,*6E
  1091.  
  1092. $GPGLL,5624.3680,N,00853.0836,E,143645.000,A,A*53
  1093.  
  1094. $GPGSA,A,3,31,23,17,09,,,,,,,,,3.11,2.95,0.98*02
  1095.  
  1096. $GPGSV,2,1,06,23,71,173,32,09,40,215,35,19,32,257,,17,25,241,20*7F
  1097.  
  1098. $GPGSV,2,2,06,31,22,042,42,12,03,323,31*7D
  1099.  
  1100. $GPRMC,143645.000,A,5624.3680,N,00853.0836,E,0.06,56.47,180919,,,A*5A
  1101.  
  1102. $GPVTG,56.47,T,,M,0.06,N,0.11,K,A*0B
  1103.  
  1104. $GPGGA,143646.000,5624.3680,N,00853.0834,E,1,4,2.95,42.5,M,43.2,M,,*6B
  1105.  
  1106. $GPGLL,5624.3680,N,00853.0834,E,143646.000,A,A*52
  1107.  
  1108. $GPGSA,A,3,31,23,17,09,,,,,,,,,3.11,2.95,0.98*02
  1109.  
  1110. $GPGSV,2,1,06,23,71,173,31,09,40,215,35,19,32,257,,17,25,241,21*7D
  1111.  
  1112. $GPGSV,2,2,06,31,22,042,42,12,03,323,31*7D
  1113.  
  1114. $GPRMC,143646.000,A,5624.3680,N,00853.0834,E,0.11,305.42,180919,,,A*6D
  1115.  
  1116. $GPVTG,305.42,T,,M,0.11,N,0.21,K,A*3E
  1117.  
  1118. $GPGGA,143647.000,5624.3681,N,00853.0837,E,1,4,2.95,43.8,M,43.2,M,,*64
  1119.  
  1120. $GPGLL,5624.3681,N,00853.0837,E,143647.000,A,A*51
  1121.  
  1122. $GPGSA,A,3,31,23,17,09,,,,,,,,,3.11,2.95,0.98*02
  1123.  
  1124. $GPGSV,2,1,06,23,71,173,31,09,40,215,36,19,32,257,,17,25,241,22*7D
  1125.  
  1126. $GPGSV,2,2,06,31,22,042,42,12,03,323,31*7D
  1127.  
  1128. $GPRMC,143647.000,A,5624.3681,N,00853.0837,E,0.52,168.45,180919,,,A*67
  1129.  
  1130. $GPVTG,168.45,T,,M,0.52,N,0.96,K,A*3B
  1131.  
  1132. $GPGGA,143648.000,5624.3680,N,00853.0836,E,1,4,2.95,43.4,M,43.2,M,,*67
  1133.  
  1134. $GPGLL,5624.3680,N,00853.0836,E,143648.000,A,A*5E
  1135.  
  1136. $GPGSA,A,3,31,23,17,09,,,,,,,,,3.11,2.95,0.98*02
  1137.  
  1138. $GPGSV,2,1,06,23,71,173,31,09,40,215,36,19,32,257,,17,25,241,22*7D
  1139.  
  1140. $GPGSV,2,2,06,31,22,042,42,12,03,323,31*7D
  1141.  
  1142. $GPRMC,143648.000,A,5624.3680,N,00853.0836,E,1.22,319.26,180919,,,A*6F
  1143.  
  1144. $GPVTG,319.26,T,,M,1.22,N,2.27,K,A*34
  1145.  
  1146. $GPGGA,143649.000,5624.3692,N,00853.0824,E,1,4,2.95,48.2,M,43.2,M,,*6B
  1147.  
  1148. $GPGLL,5624.3692,N,00853.0824,E,143649.000,A,A*5F
  1149.  
  1150. $GPGSA,A,3,31,23,17,09,,,,,,,,,3.11,2.95,0.98*02
  1151.  
  1152. $GPGSV,2,1,06,23,71,173,31,09,40,215,36,19,32,257,,17,25,241,
RAW Paste Data
We use cookies for various purposes including analytics. By continuing to use Pastebin, you agree to our use of cookies as described in the Cookies Policy. OK, I Understand
 
Top